Time;durP1;ratioP1;P1;durP2;ratioP2;P2;SDS_P1;SDS_P2;PMS_P1;PMS_P2;Temp;Humidity;BMP_temperature;BMP_pressure;BME280_temperature;BME280_humidity;BME280_pressure;Samples;Min_cycle;Max_cycle;Signal;HPM_P1;HPM_P2
2022/01/03 00:01:39;;;;;;;1.00;0.60;;;;;;;;;;5051462;28;20408;-77
2022/01/03 00:04:06;;;;;;;1.50;0.60;;;;;;;;;;5050771;28;20447;-77
2022/01/03 00:06:34;;;;;;;1.93;1.00;;;;;;;;;;5051918;28;20407;-77
2022/01/03 00:09:01;;;;;;;4.50;0.93;;;;;;;;;;5051740;28;20459;-77
2022/01/03 00:11:27;;;;;;;2.10;0.87;;;;;;;;;;5051329;28;20454;-77
2022/01/03 00:13:53;;;;;;;1.40;0.83;;;;;;;;;;5051849;28;20408;-76
2022/01/03 00:16:19;;;;;;;1.70;0.80;;;;;;;;;;5065420;28;20811;-76
2022/01/03 00:18:45;;;;;;;18.00;1.47;;;;;;;;;;5070282;28;20457;-77
2022/01/03 00:21:13;;;;;;;1.20;0.60;;;;;;;;;;5071197;28;20505;-77
2022/01/03 00:23:40;;;;;;;1.00;0.67;;;;;;;;;;5071653;28;20406;-77
2022/01/03 00:26:07;;;;;;;1.10;0.70;;;;;;;;;;5071788;28;20769;-77
2022/01/03 00:28:35;;;;;;;0.90;0.60;;;;;;;;;;5071658;28;20513;-77
2022/01/03 00:31:02;;;;;;;2.90;1.20;;;;;;;;;;5071020;28;21071;-77
2022/01/03 00:33:28;;;;;;;3.93;0.93;;;;;;;;;;5071543;28;20411;-78
2022/01/03 00:35:58;;;;;;;1.77;0.90;;;;;;;;;;5071639;28;20485;-78
2022/01/03 00:38:27;;;;;;;1.30;0.70;;;;;;;;;;5051698;28;20407;-78
2022/01/03 00:40:53;;;;;;;1.27;0.70;;;;;;;;;;5059074;28;20418;-78
2022/01/03 00:43:20;;;;;;;5.63;1.07;;;;;;;;;;5072627;28;20407;-78
2022/01/03 00:45:46;;;;;;;2.07;0.63;;;;;;;;;;5074441;28;20407;-78
2022/01/03 00:48:12;;;;;;;1.50;0.80;;;;;;;;;;5075503;28;20882;-78
2022/01/03 00:50:39;;;;;;;1.00;0.63;;;;;;;;;;5100257;22;20891;-81
2022/01/03 00:53:06;;;;;;;2.30;1.00;;;;;;;;;;5079570;28;20419;-81
2022/01/03 00:55:32;;;;;;;1.00;0.50;;;;;;;;;;5079918;28;20482;-81
2022/01/03 00:58:08;;;;;;;2.90;1.07;;;;;;;;;;5078872;28;20414;-81
2022/01/03 01:00:37;;;;;;;1.23;0.60;;;;;;;;;;5074875;28;20430;-81
2022/01/03 01:03:05;;;;;;;2.47;0.97;;;;;;;;;;5079715;28;20489;-82
2022/01/03 01:05:31;;;;;;;1.70;0.70;;;;;;;;;;5079857;28;20418;-81
2022/01/03 01:07:58;;;;;;;1.23;0.70;;;;;;;;;;5079490;28;20797;-81
2022/01/03 01:10:32;;;;;;;4.20;0.90;;;;;;;;;;5079988;28;20497;-81
2022/01/03 01:12:58;;;;;;;1.00;0.60;;;;;;;;;;5079758;28;20424;-82
2022/01/03 01:15:28;;;;;;;1.57;0.73;;;;;;;;;;5077685;28;20434;-81
2022/01/03 01:17:54;;;;;;;3.40;0.90;;;;;;;;;;5078365;28;20422;-81
2022/01/03 01:20:21;;;;;;;1.20;0.70;;;;;;;;;;5078156;28;20449;-81
2022/01/03 01:22:47;;;;;;;1.20;0.60;;;;;;;;;;5079383;28;20517;-81
2022/01/03 01:27:50;;;;;;;1.20;0.70;;;;;;;;;;5079747;28;20422;-81
2022/01/03 01:30:16;;;;;;;1.27;0.60;;;;;;;;;;5077232;28;20484;-81
2022/01/03 01:32:46;;;;;;;2.63;0.70;;;;;;;;;;5078737;28;20498;-82
2022/01/03 01:35:12;;;;;;;4.07;0.80;;;;;;;;;;5079805;28;20395;-82
2022/01/03 01:37:39;;;;;;;1.60;0.80;;;;;;;;;;5079783;28;20426;-82
2022/01/03 01:40:05;;;;;;;1.10;0.70;;;;;;;;;;5077603;28;20442;-82
2022/01/03 01:42:31;;;;;;;3.10;0.70;;;;;;;;;;5078424;28;20418;-81
2022/01/03 01:44:58;;;;;;;2.27;1.00;;;;;;;;;;5079183;28;20476;-82
2022/01/03 01:47:27;;;;;;;1.70;0.87;;;;;;;;;;5079435;28;20421;-82
2022/01/03 01:49:54;;;;;;;3.10;0.70;;;;;;;;;;5078946;28;21032;-81
2022/01/03 01:52:21;;;;;;;4.40;1.37;;;;;;;;;;5078883;28;20422;-81
2022/01/03 01:55:07;;;;;;;3.70;1.00;;;;;;;;;;5078516;28;20403;-81
2022/01/03 01:57:36;;;;;;;1.00;0.60;;;;;;;;;;5078727;28;20837;-81
2022/01/03 02:00:06;;;;;;;4.77;1.00;;;;;;;;;;5078555;28;20533;-82
2022/01/03 02:02:37;;;;;;;1.43;0.70;;;;;;;;;;5077001;28;20427;-81
2022/01/03 02:05:15;;;;;;;1.17;0.60;;;;;;;;;;5078424;28;20418;-82
2022/01/03 02:07:53;;;;;;;1.50;0.90;;;;;;;;;;5078138;28;20437;-81
2022/01/03 02:10:24;;;;;;;1.00;0.60;;;;;;;;;;5078632;28;20447;-81
2022/01/03 02:12:51;;;;;;;1.20;0.63;;;;;;;;;;5079654;28;20445;-82
2022/01/03 02:15:18;;;;;;;1.53;0.70;;;;;;;;;;5079401;28;20433;-83
2022/01/03 02:17:45;;;;;;;0.90;0.50;;;;;;;;;;5079224;28;20512;-82
2022/01/03 02:20:13;;;;;;;2.60;1.00;;;;;;;;;;5077734;28;20514;-81
2022/01/03 02:22:39;;;;;;;1.07;0.60;;;;;;;;;;5079214;28;20433;-82
2022/01/03 02:25:07;;;;;;;1.20;0.60;;;;;;;;;;5078861;28;20469;-81
2022/01/03 02:27:34;;;;;;;1.23;0.80;;;;;;;;;;5078098;28;20476;-81
2022/01/03 02:30:00;;;;;;;1.83;0.70;;;;;;;;;;5078393;28;20526;-81
2022/01/03 02:32:26;;;;;;;4.10;0.90;;;;;;;;;;5078250;28;20423;-81
2022/01/03 02:34:52;;;;;;;7.50;0.83;;;;;;;;;;5078159;28;20448;-81
2022/01/03 02:37:18;;;;;;;2.97;0.97;;;;;;;;;;5076939;28;20411;-81
2022/01/03 02:39:44;;;;;;;4.10;0.90;;;;;;;;;;5075669;28;20454;-81
2022/01/03 02:42:10;;;;;;;5.60;1.00;;;;;;;;;;5076184;28;20415;-81
2022/01/03 02:44:36;;;;;;;3.20;0.90;;;;;;;;;;5076294;28;20441;-81
2022/01/03 02:47:02;;;;;;;1.87;0.60;;;;;;;;;;5077932;28;20453;-81
2022/01/03 02:49:28;;;;;;;1.10;0.63;;;;;;;;;;5077676;28;20542;-81
2022/01/03 02:51:55;;;;;;;0.90;0.60;;;;;;;;;;5077442;28;20463;-81
2022/01/03 02:54:21;;;;;;;4.50;1.00;;;;;;;;;;5077967;28;20422;-81
2022/01/03 02:56:47;;;;;;;10.70;1.13;;;;;;;;;;5077986;28;20418;-81
2022/01/03 02:59:19;;;;;;;0.90;0.60;;;;;;;;;;5077490;28;20466;-81
2022/01/03 03:01:45;;;;;;;6.63;0.77;;;;;;;;;;5075627;28;20407;-81
2022/01/03 03:04:12;;;;;;;1.00;0.60;;;;;;;;;;5077727;28;20427;-81
2022/01/03 03:06:38;;;;;;;1.43;0.80;;;;;;;;;;5075676;28;20421;-81
2022/01/03 03:09:06;;;;;;;1.50;0.87;;;;;;;;;;5076144;28;20445;-81
2022/01/03 03:11:34;;;;;;;1.00;0.60;;;;;;;;;;5077361;28;20457;-81
2022/01/03 03:14:00;;;;;;;1.97;0.70;;;;;;;;;;5076166;28;20411;-81
2022/01/03 03:16:26;;;;;;;2.30;0.90;;;;;;;;;;5079786;28;20419;-81
2022/01/03 03:18:52;;;;;;;1.23;0.70;;;;;;;;;;5072226;28;20813;-80
2022/01/03 03:21:18;;;;;;;1.20;0.60;;;;;;;;;;5075546;28;20418;-81
2022/01/03 03:23:44;;;;;;;2.50;0.80;;;;;;;;;;5075005;28;20434;-81
2022/01/03 03:26:10;;;;;;;3.10;0.80;;;;;;;;;;5076851;28;20433;-81
2022/01/03 03:28:36;;;;;;;2.30;0.60;;;;;;;;;;5076189;28;20418;-81
2022/01/03 03:31:03;;;;;;;3.43;0.70;;;;;;;;;;5061845;28;20889;-81
2022/01/03 03:33:29;;;;;;;1.63;0.70;;;;;;;;;;5055618;28;20423;-80
2022/01/03 03:35:56;;;;;;;2.93;1.00;;;;;;;;;;5056931;28;20403;-80
2022/01/03 03:38:25;;;;;;;6.73;0.90;;;;;;;;;;5056062;28;20792;-81
2022/01/03 03:40:53;;;;;;;4.53;0.83;;;;;;;;;;5065233;28;20441;-81
2022/01/03 03:43:20;;;;;;;7.87;1.00;;;;;;;;;;5072209;28;20786;-80
2022/01/03 03:45:48;;;;;;;7.37;1.60;;;;;;;;;;5076050;28;20419;-81
2022/01/03 03:48:14;;;;;;;2.70;1.00;;;;;;;;;;5077202;28;20419;-80
2022/01/03 03:50:40;;;;;;;1.70;0.90;;;;;;;;;;5075623;28;20979;-81
2022/01/03 03:53:06;;;;;;;1.50;0.70;;;;;;;;;;5074958;28;20534;-81
2022/01/03 03:55:32;;;;;;;5.17;0.77;;;;;;;;;;5074994;28;20427;-81
2022/01/03 03:57:59;;;;;;;2.80;0.83;;;;;;;;;;5075986;28;20411;-81
2022/01/03 04:00:25;;;;;;;1.40;0.70;;;;;;;;;;5075116;28;20443;-80
2022/01/03 04:02:51;;;;;;;1.77;0.70;;;;;;;;;;5074526;28;20423;-80
2022/01/03 04:05:17;;;;;;;8.40;1.00;;;;;;;;;;5074658;28;20430;-80
2022/01/03 04:07:43;;;;;;;3.00;0.70;;;;;;;;;;5075990;28;20973;-80
2022/01/03 04:10:10;;;;;;;2.30;0.83;;;;;;;;;;5075995;28;20527;-80
2022/01/03 04:12:36;;;;;;;2.57;0.70;;;;;;;;;;5075173;28;20994;-80
2022/01/03 04:15:03;;;;;;;1.67;0.60;;;;;;;;;;5074801;28;20438;-81
2022/01/03 04:17:29;;;;;;;5.47;0.80;;;;;;;;;;5074879;28;20419;-81
2022/01/03 04:19:55;;;;;;;1.27;0.80;;;;;;;;;;5075924;28;20442;-82
2022/01/03 04:22:21;;;;;;;2.33;0.80;;;;;;;;;;5074106;28;20511;-81
2022/01/03 04:24:47;;;;;;;1.37;0.70;;;;;;;;;;5076269;28;20494;-81
2022/01/03 04:27:13;;;;;;;9.13;0.80;;;;;;;;;;5076060;28;20433;-81
2022/01/03 04:29:39;;;;;;;1.17;0.77;;;;;;;;;;5075612;28;20962;-81
2022/01/03 04:32:05;;;;;;;1.33;0.70;;;;;;;;;;5075024;28;20415;-82
2022/01/03 04:34:31;;;;;;;2.90;0.80;;;;;;;;;;5074270;28;20506;-81
2022/01/03 04:36:57;;;;;;;2.80;0.90;;;;;;;;;;5075923;28;20458;-81
2022/01/03 04:39:23;;;;;;;4.97;0.70;;;;;;;;;;5075301;28;20454;-80
2022/01/03 04:41:49;;;;;;;1.30;0.73;;;;;;;;;;5075816;28;20476;-81
2022/01/03 04:44:15;;;;;;;1.27;0.80;;;;;;;;;;5075867;28;20430;-80
2022/01/03 04:46:42;;;;;;;2.63;0.87;;;;;;;;;;5075127;28;20894;-81
2022/01/03 04:49:08;;;;;;;3.60;0.90;;;;;;;;;;5076218;28;20495;-80
2022/01/03 04:51:35;;;;;;;2.60;1.03;;;;;;;;;;5073836;28;20466;-81
2022/01/03 04:54:01;;;;;;;1.30;0.73;;;;;;;;;;5073986;28;20419;-80
2022/01/03 04:56:27;;;;;;;1.30;0.77;;;;;;;;;;5073979;28;20430;-81
2022/01/03 04:58:54;;;;;;;1.00;0.60;;;;;;;;;;5075983;28;20438;-81
2022/01/03 05:01:20;;;;;;;3.57;0.90;;;;;;;;;;5075896;28;20928;-80
2022/01/03 05:03:46;;;;;;;2.70;0.87;;;;;;;;;;5074685;28;20789;-81
2022/01/03 05:06:13;;;;;;;2.00;0.97;;;;;;;;;;5072572;28;20410;-80
2022/01/03 05:08:41;;;;;;;6.73;0.83;;;;;;;;;;5074042;28;20401;-80
2022/01/03 05:11:07;;;;;;;6.97;1.43;;;;;;;;;;5073267;28;20531;-81
2022/01/03 05:13:33;;;;;;;1.20;0.63;;;;;;;;;;5074350;28;20426;-80
2022/01/03 05:16:00;;;;;;;5.13;1.10;;;;;;;;;;5074102;28;20423;-80
2022/01/03 05:18:26;;;;;;;3.20;0.83;;;;;;;;;;5074815;28;20457;-80
2022/01/03 05:20:52;;;;;;;7.27;0.87;;;;;;;;;;5070261;28;20430;-80
2022/01/03 05:23:18;;;;;;;1.10;0.80;;;;;;;;;;5071516;28;20782;-80
2022/01/03 05:25:44;;;;;;;2.97;0.80;;;;;;;;;;5071782;28;20446;-80
2022/01/03 05:28:10;;;;;;;2.50;0.80;;;;;;;;;;5073855;28;20509;-80
2022/01/03 05:30:36;;;;;;;2.20;0.97;;;;;;;;;;5076446;28;20473;-80
2022/01/03 05:33:02;;;;;;;1.00;0.50;;;;;;;;;;5077264;28;20498;-81
2022/01/03 05:35:28;;;;;;;1.30;0.70;;;;;;;;;;5078194;28;20418;-81
2022/01/03 05:37:54;;;;;;;1.93;0.67;;;;;;;;;;5078934;28;20957;-81
2022/01/03 05:40:20;;;;;;;1.07;0.67;;;;;;;;;;5075960;28;20527;-80
2022/01/03 05:42:46;;;;;;;1.23;0.60;;;;;;;;;;5074998;28;20491;-80
2022/01/03 05:45:13;;;;;;;6.97;0.90;;;;;;;;;;5074730;28;20434;-80
2022/01/03 05:47:46;;;;;;;2.20;0.90;;;;;;;;;;5075055;28;20945;-80
2022/01/03 05:50:13;;;;;;;1.77;0.70;;;;;;;;;;5073471;28;21038;-80
2022/01/03 05:52:39;;;;;;;3.10;1.07;;;;;;;;;;5076034;28;20878;-80
2022/01/03 05:55:05;;;;;;;2.20;0.90;;;;;;;;;;5075691;28;20417;-80
2022/01/03 05:57:32;;;;;;;1.80;0.90;;;;;;;;;;5075423;28;20426;-80
2022/01/03 05:59:59;;;;;;;1.43;0.93;;;;;;;;;;5076535;28;20427;-80
2022/01/03 06:02:27;;;;;;;3.03;1.23;;;;;;;;;;5076206;28;20973;-79
2022/01/03 06:04:57;;;;;;;1.53;0.93;;;;;;;;;;5075690;28;20922;-80
2022/01/03 06:07:23;;;;;;;2.60;1.30;;;;;;;;;;5076235;28;20525;-80
2022/01/03 06:09:50;;;;;;;2.40;1.10;;;;;;;;;;5076188;28;20469;-80
2022/01/03 06:12:17;;;;;;;2.13;0.97;;;;;;;;;;5074589;28;20433;-80
2022/01/03 06:14:43;;;;;;;1.70;1.07;;;;;;;;;;5075905;28;20418;-80
2022/01/03 06:17:09;;;;;;;2.03;1.20;;;;;;;;;;5076967;28;20421;-80
2022/01/03 06:19:36;;;;;;;3.07;1.07;;;;;;;;;;5076176;28;20517;-80
2022/01/03 06:22:02;;;;;;;2.17;1.03;;;;;;;;;;5075772;28;20487;-80
2022/01/03 06:24:28;;;;;;;3.10;1.47;;;;;;;;;;5075176;28;20416;-81
2022/01/03 06:26:54;;;;;;;2.80;1.00;;;;;;;;;;5074981;28;20417;-80
2022/01/03 06:29:21;;;;;;;3.53;1.27;;;;;;;;;;5074775;28;20493;-80
2022/01/03 06:31:47;;;;;;;4.57;1.10;;;;;;;;;;5075925;28;20553;-80
2022/01/03 06:34:14;;;;;;;2.27;1.00;;;;;;;;;;5075997;28;20786;-80
2022/01/03 06:36:40;;;;;;;2.47;0.90;;;;;;;;;;5076010;28;20400;-80
2022/01/03 06:39:07;;;;;;;2.60;1.40;;;;;;;;;;5070842;28;20492;-81
2022/01/03 06:41:33;;;;;;;3.33;1.77;;;;;;;;;;5071785;28;20509;-80
2022/01/03 06:43:59;;;;;;;3.73;1.53;;;;;;;;;;5075619;28;20948;-81
2022/01/03 06:46:25;;;;;;;3.30;1.40;;;;;;;;;;5078240;28;20407;-81
2022/01/03 06:48:51;;;;;;;2.43;0.93;;;;;;;;;;5076429;28;20964;-81
2022/01/03 06:51:17;;;;;;;4.60;0.90;;;;;;;;;;5076514;28;20523;-81
2022/01/03 06:53:43;;;;;;;4.03;1.07;;;;;;;;;;5076020;28;20423;-81
2022/01/03 06:56:10;;;;;;;1.37;0.83;;;;;;;;;;5078359;28;20418;-81
2022/01/03 06:58:37;;;;;;;2.60;1.10;;;;;;;;;;5078490;28;20845;-81
2022/01/03 07:01:03;;;;;;;2.20;1.00;;;;;;;;;;5076537;28;20806;-81
2022/01/03 07:03:29;;;;;;;2.30;1.07;;;;;;;;;;5077427;28;20410;-81
2022/01/03 07:05:55;;;;;;;3.90;0.90;;;;;;;;;;5078345;28;20564;-81
2022/01/03 07:08:21;;;;;;;3.63;1.17;;;;;;;;;;5077709;28;20804;-82
2022/01/03 07:10:51;;;;;;;2.47;1.33;;;;;;;;;;5075253;28;20466;-81
2022/01/03 07:13:17;;;;;;;3.53;1.20;;;;;;;;;;5077408;28;20489;-80
2022/01/03 07:21:13;;;;;;;5.67;1.17;;;;;;;;;;5075620;28;20445;-81
2022/01/03 07:23:40;;;;;;;2.93;1.47;;;;;;;;;;5073604;28;20514;-80
2022/01/03 07:26:06;;;;;;;1.43;0.93;;;;;;;;;;5074071;28;20427;-81
2022/01/03 07:28:32;;;;;;;8.57;2.07;;;;;;;;;;5074604;28;20423;-80
2022/01/03 07:30:58;;;;;;;4.60;1.20;;;;;;;;;;5074638;28;20971;-81
2022/01/03 07:33:24;;;;;;;2.67;1.30;;;;;;;;;;5073370;28;20428;-80
2022/01/03 07:35:50;;;;;;;2.27;1.23;;;;;;;;;;5072521;28;20406;-81
2022/01/03 07:38:16;;;;;;;2.50;0.90;;;;;;;;;;5075687;28;20521;-81
2022/01/03 07:40:42;;;;;;;3.87;0.80;;;;;;;;;;5072653;28;20957;-82
2022/01/03 07:43:08;;;;;;;2.40;1.37;;;;;;;;;;5075601;28;20442;-81
2022/01/03 07:45:34;;;;;;;5.37;1.27;;;;;;;;;;5074874;28;20431;-82
2022/01/03 07:48:00;;;;;;;9.80;1.53;;;;;;;;;;5075852;28;20401;-81
2022/01/03 07:50:26;;;;;;;2.77;0.73;;;;;;;;;;5075332;28;20557;-81
2022/01/03 07:52:53;;;;;;;4.23;1.27;;;;;;;;;;5073221;28;20425;-80
2022/01/03 07:55:19;;;;;;;1.60;0.90;;;;;;;;;;5090947;28;20967;-81
2022/01/03 07:57:45;;;;;;;2.03;0.70;;;;;;;;;;5075736;28;20509;-81
2022/01/03 08:00:13;;;;;;;9.30;1.90;;;;;;;;;;5075325;28;20484;-80
2022/01/03 08:02:40;;;;;;;2.10;1.20;;;;;;;;;;5073856;28;20430;-81
2022/01/03 08:05:08;;;;;;;2.20;1.00;;;;;;;;;;5073960;28;20415;-81
2022/01/03 08:07:34;;;;;;;2.30;0.90;;;;;;;;;;5074876;28;20446;-81
2022/01/03 08:09:59;;;;;;;8.63;1.40;;;;;;;;;;5074216;28;20459;-81
2022/01/03 08:12:25;;;;;;;3.00;1.60;;;;;;;;;;5075663;28;20423;-81
2022/01/03 08:14:51;;;;;;;2.17;1.20;;;;;;;;;;5060163;28;20506;-82
2022/01/03 08:17:17;;;;;;;4.60;1.30;;;;;;;;;;5056820;28;20981;-82
2022/01/03 08:19:43;;;;;;;5.13;0.90;;;;;;;;;;5065159;28;20434;-82
2022/01/03 08:22:09;;;;;;;2.60;1.00;;;;;;;;;;5074170;28;20410;-82
2022/01/03 08:24:35;;;;;;;1.00;0.70;;;;;;;;;;5073475;28;20830;-82
2022/01/03 08:27:01;;;;;;;6.13;1.07;;;;;;;;;;5070560;28;20413;-82
2022/01/03 08:29:28;;;;;;;1.50;0.90;;;;;;;;;;5070502;28;20438;-82
2022/01/03 08:31:53;;;;;;;9.70;1.50;;;;;;;;;;5080243;28;20600;-82
2022/01/03 08:34:19;;;;;;;1.20;0.70;;;;;;;;;;5071884;28;20996;-82
2022/01/03 08:36:45;;;;;;;6.97;2.00;;;;;;;;;;5071679;28;20430;-81
2022/01/03 08:39:12;;;;;;;9.30;1.60;;;;;;;;;;5070636;28;20431;-82
2022/01/03 08:41:38;;;;;;;7.80;1.80;;;;;;;;;;5071185;28;20754;-81
2022/01/03 08:44:04;;;;;;;2.83;0.80;;;;;;;;;;5072428;28;20423;-81
2022/01/03 08:46:30;;;;;;;6.53;2.10;;;;;;;;;;5071907;28;20437;-81
2022/01/03 08:48:56;;;;;;;1.50;0.90;;;;;;;;;;5072148;28;20940;-81
2022/01/03 08:51:22;;;;;;;3.97;1.67;;;;;;;;;;5070878;28;20454;-81
2022/01/03 08:53:48;;;;;;;9.40;0.93;;;;;;;;;;5071958;28;20419;-82
2022/01/03 08:56:14;;;;;;;3.07;1.27;;;;;;;;;;5071689;28;20429;-81
2022/01/03 08:58:40;;;;;;;2.83;1.53;;;;;;;;;;5070601;28;20857;-81
2022/01/03 09:01:06;;;;;;;1.87;1.00;;;;;;;;;;5070508;28;20431;-82
2022/01/03 09:03:32;;;;;;;1.70;1.03;;;;;;;;;;5069875;28;20486;-80
2022/01/03 09:05:59;;;;;;;1.70;0.80;;;;;;;;;;5076176;28;20398;-81
2022/01/03 09:08:25;;;;;;;4.47;1.70;;;;;;;;;;5074784;28;20786;-80
2022/01/03 09:10:52;;;;;;;3.80;1.20;;;;;;;;;;5073836;28;20463;-80
2022/01/03 09:13:18;;;;;;;2.77;1.17;;;;;;;;;;5076399;28;20433;-81
2022/01/03 09:15:46;;;;;;;3.83;1.60;;;;;;;;;;5076076;28;20474;-80
2022/01/03 09:18:22;;;;;;;3.30;1.43;;;;;;;;;;5074944;28;20414;-81
2022/01/03 09:20:48;;;;;;;3.00;1.10;;;;;;;;;;5075311;28;20422;-81
2022/01/03 09:23:26;;;;;;;2.30;1.23;;;;;;;;;;5076230;28;21277;-81
2022/01/03 09:28:49;;;;;;;2.90;1.20;;;;;;;;;;5075876;28;20476;-81
2022/01/03 09:31:36;;;;;;;5.10;1.63;;;;;;;;;;5074394;28;20458;-79
2022/01/03 09:34:04;;;;;;;2.53;1.00;;;;;;;;;;5073926;28;20403;-80
2022/01/03 09:36:30;;;;;;;5.50;1.20;;;;;;;;;;5073932;28;20399;-79
2022/01/03 09:38:56;;;;;;;3.33;1.00;;;;;;;;;;5073805;28;20426;-79
2022/01/03 09:41:23;;;;;;;4.73;1.30;;;;;;;;;;5073274;28;20449;-79
2022/01/03 09:43:51;;;;;;;4.13;1.30;;;;;;;;;;5073644;28;20407;-79
2022/01/03 09:46:19;;;;;;;3.33;1.23;;;;;;;;;;5073690;28;20778;-79
2022/01/03 09:48:51;;;;;;;7.50;1.73;;;;;;;;;;5072323;28;20433;-79
2022/01/03 09:51:17;;;;;;;2.37;1.07;;;;;;;;;;5073216;28;20458;-79
2022/01/03 09:53:43;;;;;;;2.50;1.10;;;;;;;;;;5072403;28;20905;-79
2022/01/03 09:56:09;;;;;;;4.60;1.00;;;;;;;;;;5073550;28;20456;-79
2022/01/03 09:58:36;;;;;;;4.07;1.37;;;;;;;;;;5072156;28;20418;-79
2022/01/03 10:01:02;;;;;;;1.73;0.90;;;;;;;;;;5072887;28;20403;-79
2022/01/03 10:03:28;;;;;;;4.90;1.03;;;;;;;;;;5073399;28;20414;-79
2022/01/03 10:05:55;;;;;;;2.73;1.53;;;;;;;;;;5072845;28;20426;-79
2022/01/03 10:08:21;;;;;;;2.53;1.10;;;;;;;;;;5073373;28;20493;-79
2022/01/03 10:10:49;;;;;;;3.13;1.27;;;;;;;;;;5071387;28;20462;-79
2022/01/03 10:13:15;;;;;;;1.80;1.00;;;;;;;;;;5072076;28;20415;-79
2022/01/03 10:15:42;;;;;;;2.00;0.93;;;;;;;;;;5071677;28;20821;-79
2022/01/03 10:18:15;;;;;;;2.27;1.10;;;;;;;;;;5071820;28;20513;-79
2022/01/03 10:20:41;;;;;;;5.10;1.10;;;;;;;;;;5072876;28;20419;-79
2022/01/03 10:23:09;;;;;;;1.90;0.90;;;;;;;;;;5071642;28;20422;-79
2022/01/03 10:25:35;;;;;;;3.37;1.20;;;;;;;;;;5073291;28;20407;-79
2022/01/03 10:28:03;;;;;;;1.90;0.90;;;;;;;;;;5073008;28;20411;-79
2022/01/03 10:30:45;;;;;;;1.83;0.73;;;;;;;;;;5072507;28;20833;-79
2022/01/03 10:33:14;;;;;;;2.50;1.50;;;;;;;;;;5069444;28;20423;-79
2022/01/03 10:35:44;;;;;;;1.73;0.90;;;;;;;;;;5076432;28;20433;-80
2022/01/03 10:38:10;;;;;;;5.07;1.30;;;;;;;;;;5073803;28;20399;-79
2022/01/03 10:40:37;;;;;;;1.90;1.03;;;;;;;;;;5073148;28;20457;-80
2022/01/03 10:43:14;;;;;;;4.27;1.00;;;;;;;;;;5073286;28;20433;-80
2022/01/03 10:45:40;;;;;;;5.70;0.90;;;;;;;;;;5075246;28;20398;-80
2022/01/03 10:48:25;;;;;;;3.70;1.40;;;;;;;;;;5073514;28;20502;-80
2022/01/03 10:50:53;;;;;;;3.53;0.80;;;;;;;;;;5074124;28;20525;-80
2022/01/03 10:53:30;;;;;;;1.73;0.70;;;;;;;;;;5075387;28;20395;-80
2022/01/03 10:55:56;;;;;;;1.23;0.70;;;;;;;;;;5074424;28;20936;-80
2022/01/03 10:58:31;;;;;;;2.40;0.87;;;;;;;;;;5090371;28;20414;-80
2022/01/03 11:00:59;;;;;;;2.67;0.87;;;;;;;;;;5076981;28;20494;-80
2022/01/03 11:03:30;;;;;;;2.60;1.20;;;;;;;;;;5074894;28;20418;-79
2022/01/03 11:06:12;;;;;;;4.37;1.17;;;;;;;;;;5084110;28;20424;-80
2022/01/03 11:11:43;;;;;;;2.90;1.27;;;;;;;;;;5074680;28;20535;-80
2022/01/03 11:14:10;;;;;;;1.60;0.90;;;;;;;;;;5075083;28;20505;-80
2022/01/03 11:16:41;;;;;;;1.90;0.90;;;;;;;;;;5074695;28;20910;-80
2022/01/03 11:19:07;;;;;;;2.60;0.80;;;;;;;;;;5092028;28;20469;-80
2022/01/03 11:21:36;;;;;;;1.97;1.00;;;;;;;;;;5087599;28;20411;-80
2022/01/03 11:24:02;;;;;;;3.03;0.77;;;;;;;;;;5073652;28;20913;-80
2022/01/03 11:26:30;;;;;;;1.80;1.00;;;;;;;;;;5073996;28;20443;-80
2022/01/03 11:28:57;;;;;;;2.17;0.87;;;;;;;;;;5085159;28;20438;-79
2022/01/03 11:31:23;;;;;;;2.70;1.27;;;;;;;;;;5071184;28;20549;-79
2022/01/03 11:33:51;;;;;;;1.73;0.67;;;;;;;;;;5071587;28;20422;-79
2022/01/03 11:36:18;;;;;;;1.33;0.90;;;;;;;;;;5070878;28;20407;-79
2022/01/03 11:38:44;;;;;;;1.43;0.90;;;;;;;;;;5072919;28;20937;-79
2022/01/03 11:41:11;;;;;;;1.97;0.80;;;;;;;;;;5071823;28;20415;-80
2022/01/03 11:43:38;;;;;;;1.40;0.90;;;;;;;;;;5071682;28;20517;-80
2022/01/03 11:46:04;;;;;;;1.13;0.80;;;;;;;;;;5073457;28;20438;-80
2022/01/03 11:48:30;;;;;;;1.80;0.90;;;;;;;;;;5086848;28;20426;-80
2022/01/03 11:51:03;;;;;;;1.57;0.70;;;;;;;;;;5077132;28;20549;-80
2022/01/03 11:53:29;;;;;;;1.10;0.60;;;;;;;;;;5073787;28;20403;-80
2022/01/03 11:55:59;;;;;;;3.20;0.80;;;;;;;;;;5074336;28;20931;-80
2022/01/03 11:58:45;;;;;;;2.63;0.70;;;;;;;;;;5086408;28;20422;-79
2022/01/03 12:03:58;;;;;;;2.80;0.50;;;;;;;;;;5077562;28;20923;-81
2022/01/03 12:06:26;;;;;;;1.83;0.80;;;;;;;;;;5073484;28;20184;-81
2022/01/03 12:08:56;;;;;;;1.80;0.93;;;;;;;;;;5072422;28;20474;-81
2022/01/03 12:11:24;;;;;;;1.60;0.70;;;;;;;;;;5074159;28;20541;-81
2022/01/03 12:14:05;;;;;;;2.80;0.70;;;;;;;;;;5069603;28;20416;-80
2022/01/03 12:16:50;;;;;;;1.30;0.80;;;;;;;;;;5070794;28;20858;-79
2022/01/03 12:19:39;;;;;;;1.10;0.60;;;;;;;;;;5069520;28;20945;-79
2022/01/03 12:22:11;;;;;;;2.07;0.77;;;;;;;;;;5067936;28;20482;-83
2022/01/03 12:24:41;;;;;;;1.10;0.70;;;;;;;;;;5071825;28;20395;-81
2022/01/03 12:27:12;;;;;;;1.10;0.70;;;;;;;;;;5071572;28;20843;-81
2022/01/03 12:29:54;;;;;;;1.13;0.67;;;;;;;;;;5072227;28;20959;-81
2022/01/03 12:32:22;;;;;;;1.00;0.60;;;;;;;;;;5069618;28;20434;-82
2022/01/03 12:35:08;;;;;;;1.30;0.80;;;;;;;;;;5070590;28;20505;-80
2022/01/03 12:37:37;;;;;;;2.33;0.97;;;;;;;;;;5068070;28;20423;-80
2022/01/03 12:40:06;;;;;;;1.00;0.60;;;;;;;;;;5076227;28;20454;-80
2022/01/03 12:45:14;;;;;;;2.60;1.03;;;;;;;;;;5074404;28;20832;-79
2022/01/03 12:47:41;;;;;;;2.90;1.00;;;;;;;;;;5069034;28;20407;-78
2022/01/03 12:50:21;;;;;;;2.47;1.10;;;;;;;;;;5068587;28;20912;-77
2022/01/03 12:52:47;;;;;;;1.00;0.60;;;;;;;;;;5053186;28;20403;-77
2022/01/03 12:55:33;;;;;;;1.60;1.00;;;;;;;;;;5069226;28;20454;-78
2022/01/03 12:57:59;;;;;;;3.37;1.10;;;;;;;;;;5072358;28;20461;-77
2022/01/03 13:00:38;;;;;;;1.20;0.70;;;;;;;;;;5074166;28;20442;-77
2022/01/03 13:03:21;;;;;;;1.10;0.70;;;;;;;;;;5066640;28;20410;-78
2022/01/03 13:06:09;;;;;;;1.10;0.70;;;;;;;;;;5076932;28;20825;-79
2022/01/03 13:08:36;;;;;;;1.10;0.67;;;;;;;;;;5054725;28;20895;-77
2022/01/03 13:11:06;;;;;;;2.77;0.90;;;;;;;;;;5076172;28;20458;-77
2022/01/03 13:13:32;;;;;;;3.77;1.03;;;;;;;;;;5077056;28;20426;-79
2022/01/03 13:15:58;;;;;;;1.60;0.90;;;;;;;;;;5073295;28;20415;-77
2022/01/03 13:18:24;;;;;;;1.43;0.87;;;;;;;;;;5075653;28;20996;-78
2022/01/03 13:20:54;;;;;;;2.13;0.83;;;;;;;;;;5073634;28;20430;-77
2022/01/03 13:23:20;;;;;;;1.20;0.70;;;;;;;;;;5074105;28;20410;-78
2022/01/03 13:25:46;;;;;;;1.33;0.90;;;;;;;;;;5075434;28;20417;-78
2022/01/03 13:28:12;;;;;;;1.00;0.60;;;;;;;;;;5074123;28;20426;-78
2022/01/03 13:30:38;;;;;;;1.83;1.10;;;;;;;;;;5074115;28;20465;-78
2022/01/03 13:33:04;;;;;;;2.80;1.00;;;;;;;;;;5074109;28;20932;-78
2022/01/03 13:35:30;;;;;;;1.30;0.70;;;;;;;;;;5073082;28;20475;-78
2022/01/03 13:37:56;;;;;;;1.43;0.70;;;;;;;;;;5075889;28;20418;-78
2022/01/03 13:40:22;;;;;;;1.00;0.60;;;;;;;;;;5074429;28;20439;-78
2022/01/03 13:43:00;;;;;;;3.57;0.80;;;;;;;;;;5074080;28;20429;-78
2022/01/03 13:50:59;;;;;;;1.10;0.80;;;;;;;;;;5054097;28;20898;-77
2022/01/03 13:53:25;;;;;;;2.20;0.70;;;;;;;;;;5073305;28;20423;-78
2022/01/03 13:55:52;;;;;;;1.70;1.10;;;;;;;;;;5072074;28;20879;-77
2022/01/03 13:58:18;;;;;;;2.33;1.00;;;;;;;;;;5072341;28;20442;-77
2022/01/03 14:00:46;;;;;;;2.03;0.93;;;;;;;;;;5071518;28;20438;-77
2022/01/03 14:03:15;;;;;;;1.33;0.83;;;;;;;;;;5071475;28;20511;-77
2022/01/03 14:05:41;;;;;;;2.33;1.07;;;;;;;;;;5072262;28;20938;-79
2022/01/03 14:08:07;;;;;;;2.23;0.97;;;;;;;;;;5072883;28;20536;-78
2022/01/03 14:10:39;;;;;;;1.03;0.70;;;;;;;;;;5071635;28;20553;-78
2022/01/03 14:13:07;;;;;;;1.67;0.90;;;;;;;;;;5072337;28;20430;-78
2022/01/03 14:15:34;;;;;;;2.40;1.27;;;;;;;;;;5073228;28;20399;-78
2022/01/03 14:18:01;;;;;;;1.27;0.90;;;;;;;;;;5070066;28;20486;-78
2022/01/03 14:20:27;;;;;;;1.20;0.70;;;;;;;;;;5072632;28;20438;-78
2022/01/03 14:22:56;;;;;;;5.67;1.20;;;;;;;;;;5071000;28;20415;-78
2022/01/03 14:25:28;;;;;;;1.00;0.60;;;;;;;;;;5069939;28;20410;-77
2022/01/03 14:28:02;;;;;;;2.40;0.83;;;;;;;;;;5069244;28;20906;-78
2022/01/03 14:30:32;;;;;;;2.30;0.93;;;;;;;;;;5071375;28;20608;-78
2022/01/03 14:33:00;;;;;;;2.27;1.20;;;;;;;;;;5072387;28;20419;-78
2022/01/03 14:35:35;;;;;;;1.40;0.80;;;;;;;;;;5070952;28;20786;-78
2022/01/03 14:38:06;;;;;;;1.77;0.97;;;;;;;;;;5072585;28;20838;-78
2022/01/03 14:40:43;;;;;;;1.27;0.70;;;;;;;;;;5072192;28;20441;-78
2022/01/03 14:43:10;;;;;;;5.33;1.10;;;;;;;;;;5071169;28;20862;-78
2022/01/03 14:45:37;;;;;;;4.90;1.07;;;;;;;;;;5074944;28;20476;-79
2022/01/03 14:48:03;;;;;;;2.17;1.00;;;;;;;;;;5074877;28;20419;-79
2022/01/03 14:50:30;;;;;;;4.43;1.10;;;;;;;;;;5064311;28;20470;-79
2022/01/03 14:52:57;;;;;;;1.33;0.80;;;;;;;;;;5074419;28;20427;-79
2022/01/03 14:55:30;;;;;;;4.13;0.70;;;;;;;;;;5075766;28;20414;-79
2022/01/03 14:57:57;;;;;;;3.20;1.30;;;;;;;;;;5073381;28;20472;-79
2022/01/03 15:00:23;;;;;;;1.83;1.10;;;;;;;;;;5074921;28;20422;-78
2022/01/03 15:02:49;;;;;;;2.23;1.27;;;;;;;;;;5074105;28;20411;-79
2022/01/03 15:05:15;;;;;;;1.00;0.60;;;;;;;;;;5074071;28;20448;-79
2022/01/03 15:07:42;;;;;;;1.47;0.70;;;;;;;;;;5078725;28;20411;-79
2022/01/03 15:10:10;;;;;;;1.00;0.60;;;;;;;;;;5074422;28;20458;-79
2022/01/03 15:12:36;;;;;;;1.10;0.60;;;;;;;;;;5075231;28;20713;-79